sensor_id;sensor_type;location;lat;lon;timestamp;pressure;altitude;pressure_sealevel;temperature;humidity
39699;BME280;25372;50.582;12.250;2022-12-10T00:07:59;98839.53;;;0.25;100.00
39699;BME280;25372;50.582;12.250;2022-12-10T00:18:21;98851.44;;;0.37;100.00
39699;BME280;25372;50.582;12.250;2022-12-10T00:28:42;98854.03;;;0.37;100.00
39699;BME280;25372;50.582;12.250;2022-12-10T00:39:05;98851.47;;;0.27;100.00
39699;BME280;25372;50.582;12.250;2022-12-10T00:49:26;98854.75;;;0.29;100.00
39699;BME280;25372;50.582;12.250;2022-12-10T00:59:48;98855.31;;;0.23;100.00
39699;BME280;25372;50.582;12.250;2022-12-10T01:10:09;98867.13;;;0.17;100.00
39699;BME280;25372;50.582;12.250;2022-12-10T01:20:34;98871.22;;;0.20;100.00
39699;BME280;25372;50.582;12.250;2022-12-10T01:30:55;98871.66;;;0.06;100.00
39699;BME280;25372;50.582;12.250;2022-12-10T01:41:25;98880.84;;;0.10;100.00
39699;BME280;25372;50.582;12.250;2022-12-10T01:51:49;98885.78;;;0.13;100.00
39699;BME280;25372;50.582;12.250;2022-12-10T02:02:16;98883.03;;;0.14;100.00
39699;BME280;25372;50.582;12.250;2022-12-10T02:12:45;98880.56;;;0.13;100.00
39699;BME280;25372;50.582;12.250;2022-12-10T02:23:11;98878.94;;;0.02;100.00
39699;BME280;25372;50.582;12.250;2022-12-10T02:33:35;98868.25;;;0.05;100.00
39699;BME280;25372;50.582;12.250;2022-12-10T02:44:00;98872.78;;;-0.07;100.00
39699;BME280;25372;50.582;12.250;2022-12-10T02:54:42;98872.78;;;0.03;100.00
39699;BME280;25372;50.582;12.250;2022-12-10T03:05:12;98881.56;;;0.02;100.00
39699;BME280;25372;50.582;12.250;2022-12-10T03:15:38;98880.31;;;-0.04;100.00
39699;BME280;25372;50.582;12.250;2022-12-10T03:26:01;98884.16;;;0.02;100.00
39699;BME280;25372;50.582;12.250;2022-12-10T03:36:25;98896.38;;;0.02;100.00
39699;BME280;25372;50.582;12.250;2022-12-10T03:46:47;98899.50;;;0.05;100.00
39699;BME280;25372;50.582;12.250;2022-12-10T03:57:09;98886.34;;;0.07;100.00
39699;BME280;25372;50.582;12.250;2022-12-10T04:07:30;98885.53;;;-0.04;100.00
39699;BME280;25372;50.582;12.250;2022-12-10T04:17:52;98889.38;;;0.02;100.00
39699;BME280;25372;50.582;12.250;2022-12-10T04:28:14;98888.69;;;-0.10;100.00
39699;BME280;25372;50.582;12.250;2022-12-10T04:38:36;98888.13;;;-0.13;100.00
39699;BME280;25372;50.582;12.250;2022-12-10T04:48:57;98888.28;;;-0.05;100.00
39699;BME280;25372;50.582;12.250;2022-12-10T04:59:19;98882.41;;;-0.07;100.00
39699;BME280;25372;50.582;12.250;2022-12-10T05:09:40;98881.97;;;-0.12;100.00
39699;BME280;25372;50.582;12.250;2022-12-10T05:20:02;98879.09;;;0.01;100.00
39699;BME280;25372;50.582;12.250;2022-12-10T05:30:22;98882.50;;;-0.09;100.00
39699;BME280;25372;50.582;12.250;2022-12-10T05:40:44;98877.88;;;-0.15;100.00
39699;BME280;25372;50.582;12.250;2022-12-10T05:51:06;98895.28;;;-0.15;100.00
39699;BME280;25372;50.582;12.250;2022-12-10T06:01:30;98896.66;;;-0.11;100.00
39699;BME280;25372;50.582;12.250;2022-12-10T06:11:51;98900.63;;;-0.37;100.00
39699;BME280;25372;50.582;12.250;2022-12-10T06:22:13;98915.16;;;-0.24;100.00
39699;BME280;25372;50.582;12.250;2022-12-10T06:32:34;98918.31;;;-0.30;100.00
39699;BME280;25372;50.582;12.250;2022-12-10T06:42:57;98922.00;;;-0.33;100.00
39699;BME280;25372;50.582;12.250;2022-12-10T06:53:18;98931.63;;;-0.33;100.00
39699;BME280;25372;50.582;12.250;2022-12-10T07:03:40;98950.25;;;-0.28;100.00
39699;BME280;25372;50.582;12.250;2022-12-10T07:14:02;98949.44;;;-0.29;100.00
39699;BME280;25372;50.582;12.250;2022-12-10T07:24:24;98953.25;;;-0.33;100.00
39699;BME280;25372;50.582;12.250;2022-12-10T07:34:46;98956.13;;;-0.36;100.00
39699;BME280;25372;50.582;12.250;2022-12-10T07:45:11;98959.56;;;-0.26;100.00
39699;BME280;25372;50.582;12.250;2022-12-10T07:55:33;98957.25;;;-0.29;100.00
39699;BME280;25372;50.582;12.250;2022-12-10T08:06:02;98969.28;;;-0.38;100.00
39699;BME280;25372;50.582;12.250;2022-12-10T08:16:26;98972.03;;;-0.29;100.00
39699;BME280;25372;50.582;12.250;2022-12-10T08:26:49;98974.34;;;-0.26;100.00
39699;BME280;25372;50.582;12.250;2022-12-10T08:37:09;98982.19;;;-0.07;100.00
39699;BME280;25372;50.582;12.250;2022-12-10T08:47:32;98982.22;;;0.03;100.00
39699;BME280;25372;50.582;12.250;2022-12-10T08:57:52;98995.91;;;-0.05;100.00
39699;BME280;25372;50.582;12.250;2022-12-10T09:08:15;99011.25;;;-0.11;100.00
39699;BME280;25372;50.582;12.250;2022-12-10T09:18:36;99003.28;;;-0.20;100.00
39699;BME280;25372;50.582;12.250;2022-12-10T09:28:58;99010.28;;;-0.20;100.00
39699;BME280;25372;50.582;12.250;2022-12-10T09:39:19;99009.31;;;-0.19;100.00
39699;BME280;25372;50.582;12.250;2022-12-10T09:49:52;99006.44;;;-0.26;100.00
39699;BME280;25372;50.582;12.250;2022-12-10T10:00:20;99001.22;;;-0.26;100.00
39699;BME280;25372;50.582;12.250;2022-12-10T10:10:44;98988.06;;;-0.34;100.00
39699;BME280;25372;50.582;12.250;2022-12-10T10:21:11;98987.50;;;-0.38;100.00
39699;BME280;25372;50.582;12.250;2022-12-10T10:31:38;98993.00;;;-0.21;100.00
39699;BME280;25372;50.582;12.250;2022-12-10T10:42:07;98992.84;;;-0.39;100.00
39699;BME280;25372;50.582;12.250;2022-12-10T10:52:35;98981.09;;;-0.33;100.00
39699;BME280;25372;50.582;12.250;2022-12-10T11:02:57;98983.69;;;-0.33;100.00
39699;BME280;25372;50.582;12.250;2022-12-10T11:13:23;98991.19;;;-0.40;100.00
39699;BME280;25372;50.582;12.250;2022-12-10T11:23:46;98986.41;;;-0.45;100.00
39699;BME280;25372;50.582;12.250;2022-12-10T11:34:12;98993.50;;;-0.57;100.00
39699;BME280;25372;50.582;12.250;2022-12-10T11:44:42;98986.81;;;-0.49;100.00
39699;BME280;25372;50.582;12.250;2022-12-10T11:55:13;98984.19;;;-0.49;100.00
39699;BME280;25372;50.582;12.250;2022-12-10T12:05:57;98993.00;;;-0.41;100.00
39699;BME280;25372;50.582;12.250;2022-12-10T12:16:29;98990.91;;;-0.47;100.00
39699;BME280;25372;50.582;12.250;2022-12-10T12:26:54;98996.81;;;-0.45;100.00
39699;BME280;25372;50.582;12.250;2022-12-10T12:37:23;98993.97;;;-0.32;100.00
39699;BME280;25372;50.582;12.250;2022-12-10T12:47:53;98988.56;;;-0.50;100.00
39699;BME280;25372;50.582;12.250;2022-12-10T12:58:24;98984.75;;;-0.46;100.00
39699;BME280;25372;50.582;12.250;2022-12-10T13:08:48;98995.28;;;-0.47;100.00
39699;BME280;25372;50.582;12.250;2022-12-10T13:19:24;99006.06;;;-0.62;100.00
39699;BME280;25372;50.582;12.250;2022-12-10T13:29:53;99020.44;;;-0.67;100.00
39699;BME280;25372;50.582;12.250;2022-12-10T13:40:23;99014.97;;;-0.64;100.00
39699;BME280;25372;50.582;12.250;2022-12-10T13:50:48;99027.97;;;-0.64;100.00
39699;BME280;25372;50.582;12.250;2022-12-10T14:01:16;99028.69;;;-0.62;100.00
39699;BME280;25372;50.582;12.250;2022-12-10T14:11:47;99044.34;;;-0.83;100.00
39699;BME280;25372;50.582;12.250;2022-12-10T14:22:16;99045.06;;;-0.72;100.00
39699;BME280;25372;50.582;12.250;2022-12-10T14:32:38;99058.31;;;-0.84;100.00
39699;BME280;25372;50.582;12.250;2022-12-10T14:43:03;99061.59;;;-0.82;100.00
39699;BME280;25372;50.582;12.250;2022-12-10T14:53:26;99074.22;;;-0.78;100.00
39699;BME280;25372;50.582;12.250;2022-12-10T15:03:48;99066.13;;;-0.84;100.00
39699;BME280;25372;50.582;12.250;2022-12-10T15:14:15;99071.47;;;-0.76;100.00
39699;BME280;25372;50.582;12.250;2022-12-10T15:24:42;99081.59;;;-0.83;100.00
39699;BME280;25372;50.582;12.250;2022-12-10T15:35:07;99042.41;;;-1.12;100.00
39699;BME280;25372;50.582;12.250;2022-12-10T15:45:39;99098.16;;;-0.84;100.00
39699;BME280;25372;50.582;12.250;2022-12-10T15:56:01;99106.41;;;-1.00;100.00
39699;BME280;25372;50.582;12.250;2022-12-10T16:06:23;99110.41;;;-0.96;100.00
39699;BME280;25372;50.582;12.250;2022-12-10T16:16:44;99134.69;;;-0.85;100.00
39699;BME280;25372;50.582;12.250;2022-12-10T16:27:11;99133.50;;;-1.02;100.00
39699;BME280;25372;50.582;12.250;2022-12-10T16:37:32;99128.88;;;-0.99;100.00
39699;BME280;25372;50.582;12.250;2022-12-10T16:47:55;99134.63;;;-0.95;100.00
39699;BME280;25372;50.582;12.250;2022-12-10T16:58:16;99142.38;;;-1.05;100.00
39699;BME280;25372;50.582;12.250;2022-12-10T17:08:38;99150.47;;;-1.19;100.00
39699;BME280;25372;50.582;12.250;2022-12-10T17:18:59;99148.53;;;-1.06;100.00
39699;BME280;25372;50.582;12.250;2022-12-10T17:29:24;99124.03;;;-1.25;100.00
39699;BME280;25372;50.582;12.250;2022-12-10T17:39:46;99148.72;;;-1.19;100.00
39699;BME280;25372;50.582;12.250;2022-12-10T17:50:17;99151.44;;;-1.20;100.00
39699;BME280;25372;50.582;12.250;2022-12-10T18:00:42;99145.03;;;-1.16;100.00
39699;BME280;25372;50.582;12.250;2022-12-10T18:11:04;99151.34;;;-1.30;100.00
39699;BME280;25372;50.582;12.250;2022-12-10T18:21:25;99167.06;;;-1.32;100.00
39699;BME280;25372;50.582;12.250;2022-12-10T18:31:48;99159.78;;;-1.38;100.00
39699;BME280;25372;50.582;12.250;2022-12-10T18:42:09;99162.44;;;-1.28;100.00
39699;BME280;25372;50.582;12.250;2022-12-10T18:52:31;99162.81;;;-1.33;100.00
39699;BME280;25372;50.582;12.250;2022-12-10T19:02:52;99155.91;;;-1.44;100.00
39699;BME280;25372;50.582;12.250;2022-12-10T19:13:14;99159.56;;;-1.46;100.00
39699;BME280;25372;50.582;12.250;2022-12-10T19:23:34;99184.03;;;-1.49;100.00
39699;BME280;25372;50.582;12.250;2022-12-10T19:33:56;99192.84;;;-1.40;100.00
39699;BME280;25372;50.582;12.250;2022-12-10T19:44:18;99187.59;;;-1.50;100.00
39699;BME280;25372;50.582;12.250;2022-12-10T19:54:44;99200.22;;;-1.56;100.00
39699;BME280;25372;50.582;12.250;2022-12-10T20:05:05;99203.19;;;-1.61;100.00
39699;BME280;25372;50.582;12.250;2022-12-10T20:15:28;99196.09;;;-1.59;100.00
39699;BME280;25372;50.582;12.250;2022-12-10T20:25:49;99161.66;;;-1.84;100.00
39699;BME280;25372;50.582;12.250;2022-12-10T20:36:15;99189.97;;;-1.69;100.00
39699;BME280;25372;50.582;12.250;2022-12-10T20:46:36;99204.25;;;-1.52;100.00
39699;BME280;25372;50.582;12.250;2022-12-10T20:57:02;99216.19;;;-1.72;100.00
39699;BME280;25372;50.582;12.250;2022-12-10T21:07:22;99212.56;;;-1.81;100.00
39699;BME280;25372;50.582;12.250;2022-12-10T21:17:44;99203.47;;;-1.87;100.00
39699;BME280;25372;50.582;12.250;2022-12-10T21:28:06;99204.31;;;-1.98;100.00
39699;BME280;25372;50.582;12.250;2022-12-10T21:38:28;99202.06;;;-2.02;100.00
39699;BME280;25372;50.582;12.250;2022-12-10T21:48:49;99193.06;;;-1.98;100.00
39699;BME280;25372;50.582;12.250;2022-12-10T21:59:12;99186.81;;;-1.84;100.00
39699;BME280;25372;50.582;12.250;2022-12-10T22:09:33;99197.81;;;-1.92;100.00
39699;BME280;25372;50.582;12.250;2022-12-10T22:19:55;99208.91;;;-2.01;100.00
39699;BME280;25372;50.582;12.250;2022-12-10T22:30:16;99199.34;;;-2.12;100.00
39699;BME280;25372;50.582;12.250;2022-12-10T22:40:39;99179.63;;;-2.26;100.00
39699;BME280;25372;50.582;12.250;2022-12-10T22:51:03;99200.28;;;-2.02;100.00
39699;BME280;25372;50.582;12.250;2022-12-10T23:01:26;99210.53;;;-2.23;100.00
39699;BME280;25372;50.582;12.250;2022-12-10T23:11:47;99199.81;;;-2.30;100.00
39699;BME280;25372;50.582;12.250;2022-12-10T23:22:23;99199.59;;;-2.15;100.00
39699;BME280;25372;50.582;12.250;2022-12-10T23:32:44;99191.69;;;-2.14;100.00
39699;BME280;25372;50.582;12.250;2022-12-10T23:43:06;99192.63;;;-2.15;100.00
39699;BME280;25372;50.582;12.250;2022-12-10T23:53:27;99188.13;;;-2.13;100.00
